Lauderdale, Mississippi
Current Conditions -  °F | °C
As of 7:56 AM on Thursday 27 Nov 2014 (Local Time) from KNMM Reporting Station
Clear Clear  
Wind Chill: 34°   Ceiling: Unl
Heat Index: 39°   Visibility: 10mi
Dew Point: 31°   Wind: 7mph
Humidity: 73%   Direction: 320°NW
Pressure: 30.42"   Gusts: NA
Location:  32.52°N, 88.51°W
Report Text: KNMM 271356Z AUTO 32006KT 10SM CLR 04/M01 A3042 RMK AO2 SLP314 T00391006
Loading
Personal Weather Stations






























Interactive Weather Map New forecast layout! Learn more

10-Day Weather Forecast

Advertisements
Track Severe Weather on mobile